createdAt,value
2018-10-21T00:01:28.869Z,7.40
2018-10-21T00:03:57.326Z,7.40
2018-10-21T00:06:25.763Z,7.40
2018-10-21T00:08:54.545Z,7.30
2018-10-21T00:11:22.964Z,7.30
2018-10-21T00:13:51.436Z,7.30
2018-10-21T00:16:19.949Z,7.30
2018-10-21T00:18:48.465Z,7.20
2018-10-21T00:21:17.041Z,7.20
2018-10-21T00:23:45.430Z,7.20
2018-10-21T00:26:13.945Z,7.30
2018-10-21T00:28:42.732Z,7.30
2018-10-21T00:31:11.186Z,7.40
2018-10-21T00:33:39.620Z,7.40
2018-10-21T00:36:08.175Z,7.50
2018-10-21T00:38:36.580Z,7.50
2018-10-21T00:41:05.530Z,7.50
2018-10-21T00:43:34.345Z,7.50
2018-10-21T00:46:02.905Z,7.50
2018-10-21T00:48:31.385Z,7.50
2018-10-21T00:50:59.976Z,7.50
2018-10-21T00:53:28.457Z,7.50
2018-10-21T00:55:56.940Z,7.40
2018-10-21T00:58:25.821Z,7.30
2018-10-21T01:00:54.403Z,7.30
2018-10-21T01:03:22.880Z,7.20
2018-10-21T01:05:51.357Z,7.20
2018-10-21T01:08:19.811Z,7.20
2018-10-21T01:10:48.270Z,7.20
2018-10-21T01:13:16.770Z,7.30
2018-10-21T01:15:48.657Z,7.30
2018-10-21T01:18:17.149Z,7.40
2018-10-21T01:20:45.545Z,7.40
2018-10-21T01:23:14.093Z,7.40
2018-10-21T01:25:42.572Z,7.40
2018-10-21T01:28:11.061Z,7.70
2018-10-21T01:30:39.536Z,7.80
2018-10-21T01:33:11.116Z,7.90
2018-10-21T01:35:39.548Z,8.00
2018-10-21T01:38:08.091Z,8.10
2018-10-21T01:40:38.647Z,8.10
2018-10-21T01:43:08.287Z,8.10
2018-10-21T01:45:36.780Z,8.10
2018-10-21T01:48:06.616Z,8.20
2018-10-21T01:50:35.142Z,8.10
2018-10-21T01:53:04.707Z,8.10
2018-10-21T01:55:33.210Z,8.10
2018-10-21T01:58:02.120Z,8.00
2018-10-21T02:00:31.406Z,8.00
2018-10-21T02:03:00.215Z,8.10
2018-10-21T02:05:29.083Z,8.00
2018-10-21T02:07:57.684Z,8.00
2018-10-21T02:10:26.263Z,7.90
2018-10-21T02:12:54.956Z,7.90
2018-10-21T02:15:23.632Z,7.80
2018-10-21T02:17:52.066Z,7.80
2018-10-21T02:20:21.411Z,7.70
2018-10-21T02:22:50.290Z,7.80
2018-10-21T02:25:18.881Z,7.70
2018-10-21T02:27:48.193Z,7.70
2018-10-21T02:30:18.526Z,7.70
2018-10-21T02:32:48.422Z,7.70
2018-10-21T02:35:17.513Z,7.70
2018-10-21T02:37:46.301Z,7.70
2018-10-21T02:40:23.657Z,7.60
2018-10-21T02:42:52.171Z,7.70
2018-10-21T02:45:20.664Z,7.70
2018-10-21T02:47:49.121Z,7.70
2018-10-21T02:50:17.596Z,7.70
2018-10-21T02:52:46.081Z,7.70
2018-10-21T02:55:14.560Z,7.70
2018-10-21T02:57:43.038Z,7.70
2018-10-21T03:00:11.480Z,7.70
2018-10-21T03:02:40.012Z,7.70
2018-10-21T03:05:08.817Z,7.70
2018-10-21T03:07:37.257Z,7.70
2018-10-21T03:10:05.954Z,7.70
2018-10-21T03:12:34.432Z,7.80
2018-10-21T03:15:02.936Z,7.80
2018-10-21T03:17:31.347Z,7.70
2018-10-21T03:19:59.866Z,7.70
2018-10-21T03:22:28.348Z,7.70
2018-10-21T03:24:56.821Z,7.70
2018-10-21T03:27:25.307Z,7.70
2018-10-21T03:29:53.783Z,7.80
2018-10-21T03:32:22.268Z,7.70
2018-10-21T03:34:53.710Z,7.80
2018-10-21T03:37:22.208Z,7.80
2018-10-21T03:39:50.672Z,7.80
2018-10-21T03:42:19.112Z,7.80
2018-10-21T03:44:47.577Z,7.80
2018-10-21T03:47:16.088Z,7.70
2018-10-21T03:49:44.593Z,7.70
2018-10-21T03:52:13.144Z,7.70
2018-10-21T03:54:45.686Z,7.70
2018-10-21T03:57:14.234Z,7.70
2018-10-21T03:59:42.707Z,7.70
2018-10-21T04:02:11.150Z,7.70
2018-10-21T04:04:39.605Z,7.70
2018-10-21T04:07:08.120Z,7.70
2018-10-21T04:09:36.610Z,7.70
2018-10-21T04:12:05.477Z,7.70
2018-10-21T04:14:34.011Z,7.70
2018-10-21T04:17:02.571Z,7.70
2018-10-21T04:19:31.000Z,7.70
2018-10-21T04:21:59.484Z,7.80
2018-10-21T04:24:27.917Z,7.80
2018-10-21T04:27:03.149Z,7.80
2018-10-21T04:29:31.667Z,7.80
2018-10-21T04:32:00.128Z,7.80
2018-10-21T04:34:28.614Z,7.70
2018-10-21T04:37:05.997Z,7.70
2018-10-21T04:39:43.771Z,7.60
2018-10-21T04:42:12.257Z,7.60
2018-10-21T04:44:40.750Z,7.60
2018-10-21T04:47:09.346Z,7.60
2018-10-21T04:49:37.690Z,7.60
2018-10-21T04:52:06.228Z,7.60
2018-10-21T04:54:34.752Z,7.50
2018-10-21T04:57:05.085Z,7.40
2018-10-21T04:59:33.546Z,7.40
2018-10-21T05:02:02.306Z,7.30
2018-10-21T05:04:30.856Z,7.30
2018-10-21T05:06:59.400Z,7.20
2018-10-21T05:09:27.870Z,7.20
2018-10-21T05:11:56.472Z,7.10
2018-10-21T05:14:25.246Z,7.10
2018-10-21T05:16:53.842Z,7.10
2018-10-21T05:19:22.306Z,7.00
2018-10-21T05:21:51.095Z,7.00
2018-10-21T05:24:19.601Z,6.90
2018-10-21T05:26:51.334Z,6.80
2018-10-21T05:29:28.951Z,6.70
2018-10-21T05:31:57.453Z,6.60
2018-10-21T05:34:26.178Z,6.50
2018-10-21T05:36:57.242Z,6.50
2018-10-21T05:39:26.631Z,6.50
2018-10-21T05:41:58.383Z,6.60
2018-10-21T05:44:27.503Z,6.70
2018-10-21T05:46:56.094Z,6.90
2018-10-21T05:49:24.559Z,7.00
2018-10-21T05:51:53.124Z,7.10
2018-10-21T05:54:21.812Z,7.20
2018-10-21T05:56:51.416Z,7.30
2018-10-21T05:59:20.006Z,7.40
2018-10-21T06:01:48.747Z,7.50
2018-10-21T06:04:18.784Z,7.50
2018-10-21T06:06:47.390Z,7.60
2018-10-21T06:09:16.022Z,7.70
2018-10-21T06:11:44.527Z,7.80
2018-10-21T06:14:13.135Z,7.90
2018-10-21T06:16:45.851Z,8.00
2018-10-21T06:19:19.075Z,8.10
2018-10-21T06:21:47.790Z,8.20
2018-10-21T06:24:17.081Z,8.30
2018-10-21T06:26:45.568Z,8.30
2018-10-21T06:29:14.547Z,8.40
2018-10-21T06:31:46.415Z,8.50
2018-10-21T06:34:14.993Z,8.60
2018-10-21T06:36:43.500Z,8.80
2018-10-21T06:39:12.152Z,8.80
2018-10-21T06:41:40.743Z,8.80
2018-10-21T06:49:40.283Z,8.90
2018-10-21T06:52:08.756Z,9.00
2018-10-21T06:54:37.329Z,9.00
2018-10-21T06:57:06.339Z,9.00
2018-10-21T06:59:34.815Z,9.10
2018-10-21T07:02:03.301Z,9.20
2018-10-21T07:04:31.962Z,9.20
2018-10-21T07:07:00.471Z,9.20
2018-10-21T07:09:29.008Z,9.10
2018-10-21T07:11:57.708Z,9.20
2018-10-21T07:14:26.306Z,9.10
2018-10-21T07:16:54.731Z,9.10
2018-10-21T07:19:23.257Z,9.00
2018-10-21T07:21:51.766Z,9.00
2018-10-21T07:24:20.233Z,9.10
2018-10-21T07:26:48.705Z,9.10
2018-10-21T07:29:17.271Z,9.00
2018-10-21T07:31:45.714Z,9.00
2018-10-21T07:34:14.194Z,9.00
2018-10-21T07:36:42.687Z,9.00
2018-10-21T07:39:11.806Z,9.00
2018-10-21T07:41:40.288Z,9.10
2018-10-21T07:44:08.873Z,9.10
2018-10-21T07:46:37.356Z,9.10
2018-10-21T07:49:05.861Z,9.20
2018-10-21T07:51:34.407Z,9.40
2018-10-21T07:54:02.993Z,9.60
2018-10-21T07:56:31.583Z,9.60
2018-10-21T07:59:00.167Z,9.70
2018-10-21T08:01:28.819Z,9.80
2018-10-21T08:03:57.327Z,9.80
2018-10-21T08:06:35.830Z,9.80
2018-10-21T08:09:06.546Z,9.90
2018-10-21T08:11:35.071Z,9.90
2018-10-21T08:14:03.656Z,9.90
2018-10-21T08:16:32.163Z,9.70
2018-10-21T08:19:00.695Z,9.80
2018-10-21T08:21:29.484Z,10.10
2018-10-21T08:23:57.968Z,10.20
2018-10-21T08:26:26.415Z,10.20
2018-10-21T08:28:55.012Z,10.10
2018-10-21T08:31:23.471Z,10.10
2018-10-21T08:33:51.951Z,10.00
2018-10-21T08:36:20.563Z,10.10
2018-10-21T08:38:49.348Z,10.10
2018-10-21T08:41:17.805Z,10.10
2018-10-21T08:43:46.316Z,10.00
2018-10-21T08:46:14.919Z,10.00
2018-10-21T08:48:43.347Z,9.80
2018-10-21T08:51:11.942Z,9.90
2018-10-21T08:53:40.598Z,9.80
2018-10-21T08:56:09.467Z,9.70
2018-10-21T08:58:37.954Z,9.80
2018-10-21T09:01:06.474Z,10.00
2018-10-21T09:03:35.257Z,10.00
2018-10-21T09:06:03.874Z,9.90
2018-10-21T09:08:32.424Z,9.80
2018-10-21T09:11:00.933Z,9.90
2018-10-21T09:13:32.648Z,9.90
2018-10-21T09:16:01.272Z,9.90
2018-10-21T09:18:29.828Z,9.80
2018-10-21T09:20:58.413Z,10.00
2018-10-21T09:23:26.885Z,10.20
2018-10-21T09:25:55.469Z,10.20
2018-10-21T09:28:23.952Z,10.40
2018-10-21T09:30:52.409Z,10.50
2018-10-21T09:33:20.950Z,10.60
2018-10-21T09:35:49.491Z,10.70
2018-10-21T09:38:18.073Z,10.60
2018-10-21T09:40:46.651Z,10.30
2018-10-21T09:43:15.160Z,10.40
2018-10-21T09:45:43.555Z,10.70
2018-10-21T09:48:15.184Z,10.70
2018-10-21T09:50:43.677Z,10.50
2018-10-21T09:53:12.157Z,10.40
2018-10-21T09:55:40.672Z,10.60
2018-10-21T09:58:09.265Z,10.90
2018-10-21T10:00:41.842Z,10.70
2018-10-21T10:03:10.355Z,10.80
2018-10-21T10:05:39.035Z,11.10
2018-10-21T10:08:07.606Z,11.50
2018-10-21T10:10:36.137Z,11.60
2018-10-21T10:13:04.724Z,11.80
2018-10-21T10:15:33.261Z,11.90
2018-10-21T10:18:01.842Z,12.20
2018-10-21T10:20:30.420Z,12.50
2018-10-21T10:22:58.884Z,12.90
2018-10-21T10:25:27.484Z,13.10
2018-10-21T10:27:56.108Z,13.50
2018-10-21T10:30:24.681Z,14.10
2018-10-21T10:32:53.230Z,14.80
2018-10-21T10:35:21.688Z,14.90
2018-10-21T10:37:50.166Z,14.60
2018-10-21T10:40:18.716Z,15.10
2018-10-21T10:42:47.242Z,15.20
2018-10-21T10:45:15.725Z,15.10
2018-10-21T10:47:44.313Z,14.70
2018-10-21T10:50:12.893Z,14.40
2018-10-21T10:52:41.364Z,14.20
2018-10-21T10:55:10.350Z,13.50
2018-10-21T10:57:38.944Z,13.80
2018-10-21T11:00:11.788Z,14.10
2018-10-21T11:02:40.404Z,14.10
2018-10-21T11:05:09.809Z,13.60
2018-10-21T11:07:38.390Z,13.40
2018-10-21T11:10:08.523Z,13.60
2018-10-21T11:12:37.086Z,13.20
2018-10-21T11:15:06.715Z,13.40
2018-10-21T11:17:35.282Z,14.10
2018-10-21T11:20:04.471Z,14.60
2018-10-21T11:22:33.049Z,15.20
2018-10-21T11:25:01.688Z,15.60
2018-10-21T11:27:30.239Z,15.10
2018-10-21T11:29:58.796Z,14.40
2018-10-21T11:32:27.324Z,14.50
2018-10-21T11:34:55.871Z,14.40
2018-10-21T11:37:24.551Z,14.90
2018-10-21T11:39:52.827Z,15.50
2018-10-21T11:42:21.296Z,16.10
2018-10-21T11:44:50.302Z,15.60
2018-10-21T11:47:18.758Z,15.50
2018-10-21T11:49:47.228Z,15.40
2018-10-21T11:52:15.873Z,15.60
2018-10-21T11:54:44.317Z,15.50
2018-10-21T11:57:12.794Z,14.90
2018-10-21T11:59:41.290Z,15.20
2018-10-21T12:02:09.961Z,16.40
2018-10-21T12:04:38.466Z,16.90
2018-10-21T12:07:07.039Z,16.40
2018-10-21T12:09:35.507Z,15.60
2018-10-21T12:12:04.006Z,15.60
2018-10-21T12:14:32.497Z,15.10
2018-10-21T12:17:00.974Z,14.50
2018-10-21T12:19:29.487Z,14.30
2018-10-21T12:21:58.015Z,14.10
2018-10-21T12:24:26.487Z,14.10
2018-10-21T12:26:55.474Z,13.80
2018-10-21T12:29:23.953Z,13.40
2018-10-21T12:31:52.425Z,13.40
2018-10-21T12:34:20.927Z,13.50
2018-10-21T12:36:49.440Z,14.20
2018-10-21T12:39:17.916Z,16.10
2018-10-21T12:41:46.454Z,16.20
2018-10-21T12:44:15.034Z,16.40
2018-10-21T12:46:43.488Z,15.90
2018-10-21T12:49:12.066Z,15.70
2018-10-21T12:51:40.547Z,15.50
2018-10-21T12:54:09.280Z,15.20
2018-10-21T12:56:37.644Z,15.10
2018-10-21T12:59:06.137Z,15.90
2018-10-21T13:01:34.701Z,18.00
2018-10-21T13:04:03.226Z,19.50
2018-10-21T13:06:31.751Z,19.60
2018-10-21T13:09:00.237Z,18.70
2018-10-21T13:11:28.786Z,17.30
2018-10-21T13:13:57.257Z,17.20
2018-10-21T13:16:25.707Z,17.10
2018-10-21T13:18:54.713Z,17.10
2018-10-21T13:21:23.142Z,17.80
2018-10-21T13:23:51.619Z,18.90
2018-10-21T13:26:20.119Z,19.80
2018-10-21T13:28:48.563Z,18.80
2018-10-21T13:31:17.097Z,17.50
2018-10-21T13:33:45.651Z,16.90
2018-10-21T13:36:14.111Z,16.00
2018-10-21T13:38:42.607Z,15.10
2018-10-21T13:41:11.119Z,14.30
2018-10-21T13:43:39.595Z,13.80
2018-10-21T13:46:08.085Z,13.70
2018-10-21T13:48:36.650Z,13.50
2018-10-21T13:51:05.830Z,13.40
2018-10-21T13:53:34.502Z,13.20
2018-10-21T13:56:02.997Z,13.00
2018-10-21T13:58:31.527Z,12.90
2018-10-21T14:01:00.118Z,12.80
2018-10-21T14:03:28.734Z,12.90
2018-10-21T14:05:57.210Z,13.10
2018-10-21T14:08:25.794Z,13.70
2018-10-21T14:10:54.380Z,15.00
2018-10-21T14:13:22.954Z,16.50
2018-10-21T14:15:51.470Z,18.20
2018-10-21T14:18:19.970Z,18.60
2018-10-21T14:20:48.428Z,18.70
2018-10-21T14:23:16.887Z,19.30
2018-10-21T14:25:45.450Z,18.20
2018-10-21T14:28:13.947Z,17.70
2018-10-21T14:30:42.462Z,17.10
2018-10-21T14:33:11.033Z,17.20
2018-10-21T14:35:39.517Z,17.80
2018-10-21T14:38:11.337Z,18.90
2018-10-21T14:40:39.760Z,19.10
2018-10-21T14:43:08.237Z,18.60
2018-10-21T14:45:37.236Z,18.30
2018-10-21T14:48:05.733Z,17.20
2018-10-21T14:50:34.170Z,18.10
2018-10-21T14:53:02.713Z,19.00
2018-10-21T14:55:31.316Z,19.90
2018-10-21T14:57:59.804Z,20.30
2018-10-21T15:00:28.388Z,20.10
2018-10-21T15:02:56.793Z,19.10
2018-10-21T15:05:25.333Z,18.80
2018-10-21T15:07:53.918Z,18.30
2018-10-21T15:10:22.537Z,17.50
2018-10-21T15:12:50.927Z,16.90
2018-10-21T15:15:19.391Z,17.70
2018-10-21T15:17:47.880Z,18.00
2018-10-21T15:20:16.462Z,18.00
2018-10-21T15:22:44.959Z,18.10
2018-10-21T15:25:13.456Z,16.80
2018-10-21T15:27:42.460Z,16.60
2018-10-21T15:30:11.943Z,16.30
2018-10-21T15:32:40.983Z,15.90
2018-10-21T15:35:09.796Z,15.40
2018-10-21T15:37:38.300Z,14.80
2018-10-21T15:40:08.257Z,14.30
2018-10-21T15:42:37.001Z,13.70
2018-10-21T15:45:07.855Z,13.00
2018-10-21T15:47:36.451Z,12.40
2018-10-21T15:50:05.696Z,11.70
2018-10-21T15:52:34.134Z,11.00
2018-10-21T15:55:03.197Z,10.60
2018-10-21T15:57:34.872Z,10.20
2018-10-21T16:00:03.439Z,9.90
2018-10-21T16:02:32.042Z,9.50
2018-10-21T16:05:00.669Z,9.20
2018-10-21T16:07:29.295Z,9.00
2018-10-21T16:09:58.976Z,8.80
2018-10-21T16:12:27.955Z,8.50
2018-10-21T16:14:56.583Z,8.30
2018-10-21T16:17:25.078Z,8.20
2018-10-21T16:19:53.646Z,8.10
2018-10-21T16:22:22.119Z,8.00
2018-10-21T16:24:50.601Z,7.90
2018-10-21T16:27:19.184Z,7.70
2018-10-21T16:29:47.762Z,7.60
2018-10-21T16:32:16.322Z,7.50
2018-10-21T16:34:44.733Z,7.40
2018-10-21T16:37:13.250Z,7.30
2018-10-21T16:39:41.742Z,7.30
2018-10-21T16:42:10.360Z,7.20
2018-10-21T16:44:38.846Z,7.20
2018-10-21T16:47:07.323Z,7.10
2018-10-21T16:49:35.847Z,7.10
2018-10-21T16:52:04.491Z,7.10
2018-10-21T16:54:33.130Z,7.10
2018-10-21T16:57:01.580Z,7.10
2018-10-21T16:59:30.056Z,7.00
2018-10-21T17:01:58.480Z,7.00
2018-10-21T17:04:26.985Z,6.80
2018-10-21T17:06:55.716Z,6.80
2018-10-21T17:09:24.560Z,6.70
2018-10-21T17:11:53.152Z,6.70
2018-10-21T17:14:21.656Z,6.60
2018-10-21T17:16:50.211Z,6.60
2018-10-21T17:19:18.688Z,6.60
2018-10-21T17:21:47.670Z,6.50
2018-10-21T17:24:16.166Z,6.50
2018-10-21T17:26:44.636Z,6.50
2018-10-21T17:29:13.324Z,6.50
2018-10-21T17:31:41.985Z,6.50
2018-10-21T17:34:13.663Z,6.40
2018-10-21T17:36:42.344Z,6.40
2018-10-21T17:39:13.695Z,6.30
2018-10-21T17:41:42.350Z,6.20
2018-10-21T17:44:14.097Z,6.10
2018-10-21T17:46:42.941Z,6.10
2018-10-21T17:49:11.440Z,6.10
2018-10-21T17:51:39.890Z,6.10
2018-10-21T17:54:08.485Z,6.10
2018-10-21T17:56:41.343Z,6.10
2018-10-21T17:59:09.897Z,6.10
2018-10-21T18:01:42.502Z,6.10
2018-10-21T18:04:12.367Z,6.00
2018-10-21T18:06:47.315Z,5.80
2018-10-21T18:09:16.928Z,5.80
2018-10-21T18:11:47.918Z,5.70
2018-10-21T18:14:16.416Z,5.80
2018-10-21T18:16:44.949Z,5.90
2018-10-21T18:19:13.748Z,5.80
2018-10-21T18:21:42.196Z,5.80
2018-10-21T18:24:10.802Z,5.80
2018-10-21T18:26:40.815Z,5.80
2018-10-21T18:29:10.468Z,5.90
2018-10-21T18:31:43.087Z,6.00
2018-10-21T18:34:12.764Z,6.00
2018-10-21T18:36:46.305Z,6.00
2018-10-21T18:39:15.296Z,5.80
2018-10-21T18:41:44.978Z,5.70
2018-10-21T18:44:13.459Z,5.60
2018-10-21T18:46:46.144Z,5.50
2018-10-21T18:49:15.338Z,5.50
2018-10-21T18:51:44.962Z,5.40
2018-10-21T18:54:13.457Z,5.30
2018-10-21T18:56:42.221Z,5.30
2018-10-21T18:59:11.801Z,5.20
2018-10-21T19:01:40.931Z,5.20
2018-10-21T19:04:09.496Z,5.40
2018-10-21T19:06:39.002Z,5.60
2018-10-21T19:09:13.781Z,5.60
2018-10-21T19:11:42.438Z,5.40
2018-10-21T19:14:12.265Z,5.40
2018-10-21T19:16:40.767Z,5.20
2018-10-21T19:19:09.950Z,5.20
2018-10-21T19:21:38.863Z,5.10
2018-10-21T19:24:08.279Z,5.10
2018-10-21T19:26:40.050Z,5.00
2018-10-21T19:29:09.672Z,4.90
2018-10-21T19:31:38.187Z,5.00
2018-10-21T19:34:06.841Z,5.00
2018-10-21T19:36:39.878Z,4.90
2018-10-21T19:39:11.679Z,4.90
2018-10-21T19:41:42.832Z,4.90
2018-10-21T19:44:12.215Z,5.10
2018-10-21T19:46:41.894Z,5.10
2018-10-21T19:49:10.554Z,5.00
2018-10-21T19:51:42.845Z,5.00
2018-10-21T19:54:11.532Z,5.00
2018-10-21T19:56:39.993Z,4.80
2018-10-21T19:59:08.520Z,4.80
2018-10-21T20:01:37.092Z,4.80
2018-10-21T20:04:06.751Z,4.80
2018-10-21T20:06:35.634Z,4.80
2018-10-21T20:09:05.599Z,4.80
2018-10-21T20:11:34.440Z,4.80
2018-10-21T20:14:02.908Z,4.80
2018-10-21T20:16:31.564Z,4.70
2018-10-21T20:19:00.155Z,4.70
2018-10-21T20:21:28.683Z,4.60
2018-10-21T20:23:57.303Z,4.60
2018-10-21T20:26:25.776Z,4.50
2018-10-21T20:28:54.371Z,4.50
2018-10-21T20:31:22.872Z,4.40
2018-10-21T20:33:51.403Z,4.40
2018-10-21T20:36:19.892Z,4.40
2018-10-21T20:38:48.376Z,4.30
2018-10-21T20:41:16.879Z,4.20
2018-10-21T20:43:45.382Z,4.10
2018-10-21T20:46:13.983Z,4.20
2018-10-21T20:48:42.360Z,4.20
2018-10-21T20:51:10.898Z,4.30
2018-10-21T20:53:39.290Z,4.30
2018-10-21T20:56:10.689Z,4.30
2018-10-21T20:58:39.237Z,4.20
2018-10-21T21:01:07.897Z,4.30
2018-10-21T21:03:36.400Z,4.20
2018-10-21T21:06:04.974Z,4.10
2018-10-21T21:08:33.520Z,4.10
2018-10-21T21:11:01.989Z,4.20
2018-10-21T21:13:30.473Z,4.10
2018-10-21T21:15:58.989Z,4.10
2018-10-21T21:18:27.520Z,4.00
2018-10-21T21:20:55.979Z,4.00
2018-10-21T21:23:24.601Z,4.00
2018-10-21T21:25:53.072Z,4.00
2018-10-21T21:28:21.528Z,4.00
2018-10-21T21:30:50.070Z,4.00
2018-10-21T21:33:18.613Z,3.90
2018-10-21T21:35:47.070Z,3.90
2018-10-21T21:38:15.674Z,3.90
2018-10-21T21:40:44.153Z,3.90
2018-10-21T21:43:12.742Z,3.80
2018-10-21T21:45:41.324Z,3.70
2018-10-21T21:48:09.851Z,3.60
2018-10-21T21:50:38.260Z,3.50
2018-10-21T21:53:06.786Z,3.50
2018-10-21T21:55:35.329Z,3.40
2018-10-21T21:58:03.850Z,3.40
2018-10-21T22:00:32.294Z,3.40
2018-10-21T22:03:00.765Z,3.30
2018-10-21T22:05:29.196Z,3.30
2018-10-21T22:07:57.748Z,3.20
2018-10-21T22:10:29.087Z,3.20
2018-10-21T22:12:57.661Z,3.10
2018-10-21T22:15:26.121Z,3.10
2018-10-21T22:17:54.577Z,3.10
2018-10-21T22:20:23.076Z,3.00
2018-10-21T22:22:51.556Z,3.10
2018-10-21T22:25:20.028Z,3.10
2018-10-21T22:27:48.497Z,3.10
2018-10-21T22:30:17.052Z,3.10
2018-10-21T22:32:45.531Z,3.20
2018-10-21T22:35:14.063Z,3.20
2018-10-21T22:37:42.532Z,3.20
2018-10-21T22:40:11.050Z,3.10
2018-10-21T22:42:39.506Z,3.20
2018-10-21T22:45:08.727Z,3.30
2018-10-21T22:47:37.407Z,3.40
2018-10-21T22:50:07.753Z,3.50
2018-10-21T22:52:36.212Z,3.60
2018-10-21T22:55:05.242Z,3.50
2018-10-21T22:57:33.806Z,3.40
2018-10-21T23:00:02.416Z,3.40
2018-10-21T23:02:30.951Z,3.40
2018-10-21T23:04:59.451Z,3.40
2018-10-21T23:07:30.854Z,3.40
2018-10-21T23:09:59.709Z,3.40
2018-10-21T23:12:28.164Z,3.40
2018-10-21T23:14:56.683Z,3.50
2018-10-21T23:17:25.330Z,3.40
2018-10-21T23:19:53.781Z,3.40
2018-10-21T23:22:22.247Z,3.40
2018-10-21T23:24:50.740Z,3.40
2018-10-21T23:27:20.099Z,3.30
2018-10-21T23:29:48.548Z,3.30
2018-10-21T23:32:17.041Z,3.40
2018-10-21T23:34:45.585Z,3.40
2018-10-21T23:37:14.014Z,3.40
2018-10-21T23:39:42.513Z,3.50
2018-10-21T23:42:11.033Z,3.40
2018-10-21T23:44:39.487Z,3.40
2018-10-21T23:47:07.963Z,3.30
2018-10-21T23:49:36.556Z,3.40
2018-10-21T23:52:05.864Z,3.30
2018-10-21T23:54:34.544Z,3.30
2018-10-21T23:57:07.230Z,3.40
2018-10-21T23:59:36.588Z,3.40
